DAUH/HME METAR and TAF weather

Enter ICAO airport designator
Station Type Date Time Source
DAUH METAR 2019/06/26 22:00 UTC NOAA

DAUH 262200Z 05006KT CAVOK 37/07 Q1013


Station Type Date Time Source
DAUH Decoded METAR 2019/06/26 22:00 UTC NOAA

Hassi-Messaoud, Algeria (DAUH) 31-40N 006-09E 142M
Jun 26, 2019 - 06:00 PM EDT / 2019.06.26 2200 UTC
Wind: from the NE (050 degrees) at 7 MPH (6 KT):0
Visibility: greater than 7 mile(s):0
Temperature: 98 F (37 C)
Dew Point: 44 F (7 C)
Relative Humidity: 15%
Pressure (altimeter): 29.91 in. Hg (1013 hPa)
ob: DAUH 262200Z 05006KT CAVOK 37/07 Q1013
cycle: 22

Station Type Date Time Source
DAUH TAF 2019/06/26 18:40 UTC NOAA

TAF DAUH 261700Z 2618/2718 12008KT 9999 SCT040

Example: see airport list